.
WxDataArchive / Data Records for 2011-12-27
2011-12-26 December 2011 2011-12-28

Data Records for Tuesday, 27 December 2011

Time	Temp	Chill	HIndex	Humid	Dewpt	 Wind 	HiWind	WindDir	Rain 	Barom 
-----	----	-----	------	-----	-----	------	------	-------	-----	----- 
00:00	35.6	35.6	35.6	78	29.4	0	2	90	0.00	29.979 
00:05	35.6	35.6	35.6	77	29.1	0	3	90	0.00	29.979 
00:10	35.8	35.8	35.8	77	29.3	0	1	90	0.00	29.979 
00:15	35.9	35.9	35.9	76	29.1	0	0	---	0.00	29.936 
00:20	35.9	35.9	35.9	76	29.1	0	0	---	0.00	29.936 
00:25	35.9	35.9	35.9	76	29.1	0	0	---	0.00	29.936 
00:30	35.9	35.9	35.9	76	29.1	0	1	90	0.00	29.925 
00:35	35.9	35.9	35.9	76	29.1	0	0	---	0.00	29.925 
00:40	35.9	35.9	35.9	76	29.1	0	0	---	0.00	29.925 
00:45	35.8	35.8	35.8	76	29.0	0	2	90	0.00	29.903 
00:50	35.6	35.6	35.6	77	29.1	0	2	90	0.00	29.903 
00:55	35.6	35.6	35.6	77	29.1	0	0	---	0.00	29.903 
01:00	35.5	35.5	35.5	77	29.0	0	0	---	0.00	29.903 
01:05	35.5	35.5	35.5	77	29.0	0	0	---	0.00	29.903 
01:10	35.3	35.3	35.3	77	28.8	0	0	---	0.00	29.903 
01:15	35.3	35.3	35.3	77	28.8	0	0	---	0.00	29.886 
01:20	35.3	35.3	35.3	78	29.1	0	1	90	0.00	29.886 
01:25	35.3	35.3	35.3	77	28.8	0	1	90	0.00	29.886 
01:30	35.3	35.3	35.3	77	28.8	0	2	90	0.00	29.900 
01:35	35.5	35.5	35.5	77	29.0	0	1	90	0.00	29.900 
01:40	35.5	35.5	35.5	77	29.0	0	0	---	0.00	29.900 
01:45	35.6	35.6	35.6	77	29.1	0	1	90	0.00	29.884 
01:50	35.6	35.6	35.6	77	29.1	0	1	90	0.00	29.884 
01:55	35.6	35.6	35.6	77	29.1	0	0	---	0.00	29.884 
02:00	35.6	35.6	35.6	77	29.1	0	1	90	0.00	29.869 
02:05	35.6	35.6	35.6	77	29.1	0	0	---	0.00	29.869 
02:10	35.6	35.6	35.6	77	29.1	0	1	90	0.00	29.869 
02:15	35.8	35.8	35.8	77	29.3	0	1	90	0.00	29.865 
02:20	35.8	35.8	35.8	77	29.3	0	1	90	0.00	29.865 
02:25	35.9	35.9	35.9	77	29.4	0	1	90	0.00	29.865 
02:30	35.9	35.9	35.9	77	29.4	0	1	90	0.00	29.858 
02:35	35.9	35.9	35.9	77	29.4	0	0	---	0.00	29.858 
02:40	35.9	35.9	35.9	77	29.4	0	1	90	0.00	29.858 
02:45	36.0	36.0	36.0	76	29.2	0	1	90	0.00	29.819 
02:50	36.0	36.0	36.0	76	29.2	0	2	90	0.00	29.819 
02:55	36.0	36.0	36.0	75	28.9	0	2	90	0.00	29.819 
03:00	36.2	36.2	36.2	75	29.1	0	2	90	0.00	29.834 
03:05	36.2	36.2	36.2	75	29.1	1	4	90	0.00	29.834 
03:10	36.3	36.3	36.3	75	29.1	0	2	112	0.00	29.834 
03:15	36.3	36.3	36.3	75	29.1	0	1	112	0.00	29.836 
03:20	36.3	36.3	36.3	76	29.5	0	1	112	0.00	29.836 
03:25	36.3	36.3	36.3	76	29.5	0	0	---	0.00	29.836 
03:30	36.3	36.3	36.3	76	29.5	0	0	---	0.00	29.829 
03:35	36.3	36.3	36.3	76	29.5	0	3	270	0.00	29.829 
03:40	36.3	36.3	36.3	76	29.5	0	0	---	0.00	29.829 
03:45	36.3	36.3	36.3	76	29.5	0	1	270	0.00	29.821 
03:50	36.3	36.3	36.3	76	29.5	0	1	270	0.00	29.821 
03:55	36.3	36.3	36.3	75	29.1	0	1	270	0.00	29.821 
04:00	36.3	36.3	36.3	76	29.5	0	1	270	0.00	29.821 
04:05	36.3	36.3	36.3	76	29.5	0	1	270	0.00	29.821 
04:10	36.3	36.3	36.3	77	29.8	0	0	---	0.00	29.821 
04:15	36.0	36.0	36.0	77	29.5	0	0	---	0.00	29.808 
04:20	35.9	35.9	35.9	79	30.0	0	0	---	0.00	29.808 
04:25	35.6	35.6	35.6	80	30.1	0	0	---	0.00	29.808 
04:30	35.3	35.3	35.3	81	30.1	0	0	---	0.00	29.801 
04:35	35.0	35.0	35.0	82	30.1	0	0	---	0.00	29.801 
04:40	34.9	34.9	34.9	83	30.3	0	1	270	0.00	29.801 
04:45	34.6	34.6	34.6	84	30.3	0	0	---	0.00	29.792 
04:50	34.4	34.4	34.4	85	30.4	0	0	---	0.00	29.792 
04:55	34.1	34.1	34.1	85	30.1	0	1	270	0.00	29.792 
05:00	34.0	34.0	34.0	86	30.3	0	0	---	0.00	29.784 
05:05	33.8	33.8	33.8	86	30.1	0	1	270	0.00	29.784 
05:10	33.7	33.7	33.7	87	30.3	0	0	---	0.00	29.784 
05:15	33.5	33.5	33.5	88	30.3	0	1	270	0.00	29.771 
05:20	33.5	33.5	33.5	89	30.6	0	1	270	0.00	29.771 
05:25	33.4	33.4	33.4	89	30.5	0	1	270	0.00	29.771 
05:30	33.2	33.2	33.2	90	30.6	0	1	270	0.00	29.738 
05:35	33.1	33.1	33.1	90	30.5	0	1	270	0.00	29.738 
05:40	32.9	32.9	32.9	91	30.6	0	1	270	0.00	29.738 
05:45	32.9	32.9	32.9	91	30.6	0	2	270	0.00	29.725 
05:50	32.8	32.8	32.8	92	30.7	0	1	270	0.00	29.725 
05:55	32.8	32.8	32.8	92	30.7	0	1	270	0.00	29.725 
06:00	32.8	32.8	32.8	92	30.7	0	2	270	0.00	29.709 
06:05	32.8	32.8	32.8	92	30.7	0	2	270	0.00	29.709 
06:10	32.8	32.8	32.8	92	30.7	0	1	270	0.00	29.709 
06:15	32.7	32.7	32.7	93	30.9	0	1	270	0.00	29.697 
06:20	32.7	32.7	32.7	93	30.9	0	2	270	0.00	29.697 
06:25	32.7	32.7	32.7	93	30.9	0	1	270	0.00	29.697 
06:30	32.7	32.7	32.7	93	30.9	0	1	270	0.00	29.685 
06:35	32.7	32.7	32.7	93	30.9	0	1	270	0.00	29.685 
06:40	32.7	32.7	32.7	93	30.9	0	2	270	0.00	29.685 
06:45	32.5	32.5	32.5	93	30.7	0	1	270	0.00	29.657 
06:50	32.5	32.5	32.5	93	30.7	0	1	270	0.00	29.657 
06:55	32.5	32.5	32.5	94	31.0	0	0	---	0.00	29.657 
07:00	32.5	32.5	32.5	94	31.0	0	0	---	0.00	29.676 
07:05	32.7	32.7	32.7	94	31.2	0	1	270	0.00	29.676 
07:10	32.7	32.7	32.7	94	31.2	0	0	---	0.00	29.676 
07:15	32.5	32.5	32.5	94	31.0	0	1	270	0.00	29.669 
07:20	32.5	32.5	32.5	94	31.0	0	1	270	0.00	29.669 
07:25	32.5	32.5	32.5	94	31.0	0	1	270	0.00	29.669 
07:30	32.5	32.5	32.5	94	31.0	0	2	270	0.00	29.660 
07:35	32.5	32.5	32.5	94	31.0	0	2	270	0.00	29.660 
07:40	32.5	32.5	32.5	94	31.0	0	2	270	0.00	29.660 
07:45	32.5	32.5	32.5	94	31.0	0	2	270	0.00	29.665 
07:50	32.5	32.5	32.5	94	31.0	0	2	270	0.00	29.665 
07:55	32.5	32.5	32.5	94	31.0	0	2	270	0.00	29.665 
08:00	32.5	32.5	32.5	94	31.0	0	1	270	0.00	29.647 
08:05	32.5	32.5	32.5	94	31.0	0	0	---	0.00	29.647 
08:10	32.5	32.5	32.5	95	31.2	0	1	270	0.00	29.647 
08:15	32.5	32.5	32.5	94	31.0	0	1	270	0.00	29.646 
08:20	32.5	32.5	32.5	95	31.2	0	1	270	0.00	29.646 
08:25	32.5	32.5	32.5	95	31.2	0	0	---	0.00	29.646 
08:30	32.5	32.5	32.5	95	31.2	0	0	---	0.00	29.633 
08:35	32.5	32.5	32.5	95	31.2	0	0	---	0.00	29.633 
08:40	32.5	32.5	32.5	95	31.2	0	0	---	0.00	29.633 
08:45	32.5	32.5	32.5	95	31.2	0	0	---	0.00	29.640 
08:50	32.5	32.5	32.5	95	31.2	0	0	---	0.00	29.640 
08:55	32.5	32.5	32.5	95	31.2	0	0	---	0.00	29.640 
09:00	32.5	32.5	32.5	95	31.2	0	0	---	0.00	29.644 
09:05	32.5	32.5	32.5	95	31.2	0	0	---	0.00	29.644 
09:10	32.5	32.5	32.5	95	31.2	0	0	---	0.00	29.644 
09:15	32.5	32.5	32.5	95	31.2	0	0	---	0.00	29.625 
09:20	32.5	32.5	32.5	95	31.2	0	0	---	0.00	29.625 
09:25	32.7	32.7	32.7	95	31.4	0	0	---	0.00	29.625 
09:30	32.7	32.7	32.7	95	31.4	0	0	---	0.00	29.614 
09:35	32.8	32.8	32.8	95	31.5	0	0	---	0.00	29.614 
09:40	32.8	32.8	32.8	95	31.5	0	0	---	0.00	29.614 
09:45	32.8	32.8	32.8	95	31.5	0	0	---	0.00	29.609 
09:50	32.8	32.8	32.8	95	31.5	0	0	---	0.00	29.609 
09:55	32.8	32.8	32.8	95	31.5	0	0	---	0.01	29.609 
10:00	32.8	32.8	32.8	95	31.5	0	0	---	0.00	29.603 
10:05	32.8	32.8	32.8	95	31.5	0	0	---	0.00	29.603 
10:10	32.9	32.9	32.9	95	31.6	0	0	---	0.00	29.603 
10:15	32.9	32.9	32.9	95	31.6	0	0	---	0.00	29.594 
10:20	33.1	33.1	33.1	95	31.8	0	0	---	0.00	29.594 
10:25	33.1	33.1	33.1	95	31.8	0	0	---	0.00	29.594 
10:30	33.2	33.2	33.2	95	31.9	0	1	270	0.00	29.583 
10:35	33.4	33.4	33.4	95	32.1	0	0	---	0.01	29.583 
10:40	33.5	33.5	33.5	95	32.2	0	1	270	0.00	29.583 
10:45	33.5	33.5	33.5	95	32.2	0	0	---	0.00	29.577 
10:50	33.7	33.7	33.7	95	32.4	0	1	270	0.01	29.577 
10:55	33.7	33.7	33.7	95	32.4	0	0	---	0.00	29.577 
11:00	33.7	33.7	33.7	95	32.4	0	0	---	0.00	29.562 
11:05	33.7	33.7	33.7	95	32.4	0	1	270	0.01	29.562 
11:10	33.7	33.7	33.7	95	32.4	0	0	---	0.00	29.562 
11:15	33.7	33.7	33.7	95	32.4	0	0	---	0.00	29.555 
11:20	33.7	33.7	33.7	95	32.4	0	0	---	0.01	29.555 
11:25	33.7	33.7	33.7	95	32.4	0	0	---	0.00	29.555 
11:30	33.7	33.7	33.7	95	32.4	0	0	---	0.00	29.542 
11:35	33.7	33.7	33.7	95	32.4	0	0	---	0.00	29.542 
11:40	33.5	33.5	33.5	95	32.2	0	0	---	0.00	29.542 
11:45	33.5	33.5	33.5	95	32.2	0	0	---	0.01	29.520 
11:50	33.5	33.5	33.5	95	32.2	0	0	---	0.00	29.520 
11:55	33.5	33.5	33.5	95	32.2	0	1	270	0.00	29.520 
12:00	33.5	33.5	33.5	95	32.2	0	0	---	0.00	29.509 
12:05	33.5	33.5	33.5	95	32.2	0	1	270	0.00	29.509 
12:10	33.5	33.5	33.5	95	32.2	0	1	270	0.01	29.509 
12:15	33.5	33.5	33.5	95	32.2	0	1	270	0.00	29.499 
12:20	33.4	33.4	33.4	95	32.1	0	1	270	0.00	29.499 
12:25	33.4	33.4	33.4	95	32.1	0	1	270	0.00	29.499 
12:30	33.5	33.5	33.5	95	32.2	0	0	---	0.01	29.491 
12:35	33.5	33.5	33.5	95	32.2	0	1	270	0.00	29.491 
12:40	33.5	33.5	33.5	95	32.2	0	1	270	0.00	29.491 
12:45	33.5	33.5	33.5	95	32.2	0	1	270	0.01	29.488 
12:50	33.7	33.7	33.7	95	32.4	0	0	---	0.00	29.488 
12:55	33.7	33.7	33.7	95	32.4	0	1	270	0.00	29.488 
13:00	33.7	33.7	33.7	95	32.4	0	1	270	0.00	29.481 
13:05	33.7	33.7	33.7	95	32.4	0	0	---	0.01	29.481 
13:10	33.5	33.5	33.5	95	32.2	0	1	270	0.00	29.481 
13:15	33.5	33.5	33.5	95	32.2	0	1	270	0.00	29.481 
13:20	33.4	33.4	33.4	95	32.1	0	1	270	0.00	29.481 
13:25	33.4	33.4	33.4	95	32.1	0	1	270	0.01	29.481 
13:30	33.2	33.2	33.2	95	31.9	0	1	270	0.00	29.479 
13:35	33.2	33.2	33.2	95	31.9	0	1	270	0.00	29.479 
13:40	33.2	33.2	33.2	95	31.9	0	1	270	0.00	29.479 
13:45	33.2	33.2	33.2	95	31.9	0	1	270	0.01	29.477 
13:50	33.2	33.2	33.2	95	31.9	1	2	270	0.00	29.477 
13:55	33.1	33.1	33.1	95	31.8	0	1	270	0.00	29.477 
14:00	33.2	33.2	33.2	95	31.9	0	1	270	0.00	29.471 
14:05	33.2	33.2	33.2	95	31.9	0	2	270	0.00	29.471 
14:10	33.2	33.2	33.2	95	31.9	0	2	270	0.01	29.471 
14:15	33.2	33.2	33.2	95	31.9	0	1	270	0.00	29.473 
14:20	33.2	33.2	33.2	95	31.9	0	2	270	0.00	29.473 
14:25	33.2	33.2	33.2	95	31.9	1	3	270	0.00	29.473 
14:30	33.2	33.2	33.2	95	31.9	1	2	270	0.01	29.480 
14:35	33.2	33.2	33.2	95	31.9	1	2	270	0.00	29.480 
14:40	33.2	33.2	33.2	95	31.9	1	3	270	0.00	29.480 
14:45	33.4	33.4	33.4	95	32.1	1	3	270	0.01	29.482 
14:50	33.4	33.4	33.4	95	32.1	1	3	270	0.00	29.482 
14:55	33.4	33.4	33.4	95	32.1	1	4	270	0.00	29.482 
15:00	33.4	33.4	33.4	95	32.1	1	3	270	0.01	29.486 
15:05	33.5	33.5	33.5	95	32.2	1	2	270	0.00	29.486 
15:10	33.5	33.5	33.5	95	32.2	1	3	270	0.00	29.486 
15:15	33.5	33.5	33.5	95	32.2	1	2	270	0.00	29.494 
15:20	33.4	33.4	33.4	95	32.1	2	3	270	0.01	29.494 
15:25	33.4	33.4	33.4	95	32.1	1	3	270	0.00	29.494 
15:30	33.4	33.4	33.4	95	32.1	1	3	270	0.00	29.500 
15:35	33.4	33.4	33.4	95	32.1	1	4	270	0.00	29.500 
15:40	33.4	33.4	33.4	95	32.1	1	2	270	0.01	29.500 
15:45	33.5	33.5	33.5	95	32.2	1	3	270	0.00	29.510 
15:50	33.5	33.5	33.5	95	32.2	1	3	270	0.00	29.510 
15:55	33.5	33.5	33.5	95	32.2	1	2	270	0.00	29.510 
16:00	33.5	33.5	33.5	95	32.2	1	3	270	0.00	29.517 
16:05	33.7	33.7	33.7	95	32.4	2	3	270	0.00	29.517 
16:10	33.7	33.7	33.7	95	32.4	1	3	270	0.01	29.517 
16:15	33.8	33.8	33.8	95	32.5	1	2	315	0.00	29.530 
16:20	33.8	33.8	33.8	95	32.5	1	3	315	0.00	29.530 
16:25	34.0	34.0	34.0	95	32.7	2	4	292	0.00	29.530 
16:30	34.0	34.0	34.0	95	32.7	2	3	292	0.00	29.543 
16:35	34.1	34.1	34.1	95	32.8	2	4	292	0.00	29.543 
16:40	34.1	34.1	34.1	95	32.8	2	4	292	0.00	29.543 
16:45	34.1	34.1	34.1	95	32.8	1	3	292	0.00	29.549 
16:50	34.1	34.1	34.1	95	32.8	2	4	270	0.00	29.549 
16:55	34.3	34.3	34.3	95	33.0	2	4	270	0.01	29.549 
17:00	34.3	34.3	34.3	95	33.0	2	3	270	0.00	29.560 
17:05	34.3	34.3	34.3	95	33.0	2	3	270	0.00	29.560 
17:10	34.3	34.3	34.3	95	33.0	1	3	270	0.00	29.560 
17:15	34.4	34.4	34.4	95	33.1	1	3	270	0.00	29.567 
17:20	34.4	34.4	34.4	95	33.1	2	4	270	0.00	29.567 
17:25	34.6	34.6	34.6	95	33.3	2	3	270	0.00	29.567 
17:30	34.6	34.6	34.6	95	33.3	1	3	270	0.00	29.578 
17:35	34.7	34.7	34.7	95	33.4	2	3	270	0.00	29.578 
17:40	34.7	34.7	34.7	95	33.4	1	4	270	0.00	29.578 
17:45	34.9	34.9	34.9	95	33.6	1	3	270	0.01	29.590 
17:50	34.9	34.9	34.9	95	33.6	1	4	270	0.00	29.590 
17:55	35.0	35.0	35.0	95	33.7	1	3	270	0.00	29.590 
18:00	35.0	35.0	35.0	95	33.7	2	3	270	0.00	29.595 
18:05	35.2	35.2	35.2	95	33.9	1	4	270	0.00	29.595 
18:10	35.2	35.2	35.2	95	33.9	1	3	270	0.00	29.595 
18:15	35.2	35.2	35.2	95	33.9	2	3	270	0.00	29.607 
18:20	35.2	35.2	35.2	95	33.9	1	3	270	0.00	29.607 
18:25	35.3	35.3	35.3	95	34.0	1	4	270	0.00	29.607 
18:30	35.3	35.3	35.3	95	34.0	2	5	270	0.00	29.616 
18:35	35.5	35.5	35.5	95	34.2	1	4	270	0.00	29.616 
18:40	35.5	35.5	35.5	95	34.2	1	3	270	0.01	29.616 
18:45	35.6	35.6	35.6	95	34.3	1	3	338	0.00	29.626 
18:50	35.6	35.6	35.6	95	34.3	1	3	270	0.00	29.626 
18:55	35.8	35.8	35.8	95	34.5	1	3	248	0.00	29.626 
19:00	35.8	35.8	35.8	95	34.5	2	4	270	0.00	29.639 
19:05	35.9	35.9	35.9	95	34.6	2	5	270	0.00	29.639 
19:10	35.9	35.9	35.9	94	34.3	2	5	270	0.00	29.639 
19:15	36.0	36.0	36.0	94	34.4	1	3	315	0.00	29.653 
19:20	36.0	36.0	36.0	94	34.4	2	5	248	0.00	29.653 
19:25	36.2	36.2	36.2	94	34.6	2	6	270	0.00	29.653 
19:30	36.2	36.2	36.2	94	34.6	2	5	315	0.01	29.663 
19:35	36.3	36.3	36.3	93	34.5	2	4	315	0.00	29.663 
19:40	36.3	36.3	36.3	93	34.5	2	4	270	0.00	29.663 
19:45	36.5	36.5	36.5	93	34.7	2	10	292	0.00	29.670 
19:50	36.3	33.0	36.3	92	34.2	4	10	270	0.00	29.670 
19:55	36.2	36.2	36.2	92	34.1	3	11	270	0.00	29.670 
20:00	36.0	32.7	36.0	91	33.6	4	7	292	0.00	29.687 
20:05	35.9	35.9	35.9	90	33.3	3	7	0	0.00	29.687 
20:10	35.8	32.5	35.8	90	33.2	4	7	315	0.01	29.687 
20:15	35.5	32.1	35.5	89	32.6	4	8	270	0.00	29.701 
20:20	35.2	35.2	35.2	88	32.0	3	6	315	0.00	29.701 
20:25	35.0	35.0	35.0	87	31.5	3	7	270	0.00	29.701 
20:30	34.9	34.9	34.9	86	31.1	3	6	315	0.00	29.705 
20:35	34.9	34.9	34.9	85	30.9	3	10	270	0.00	29.705 
20:40	34.7	34.7	34.7	85	30.7	3	7	292	0.00	29.705 
20:45	34.7	34.7	34.7	85	30.7	2	6	315	0.00	29.715 
20:50	34.6	34.6	34.6	85	30.6	3	9	270	0.00	29.715 
20:55	34.4	34.4	34.4	84	30.1	3	6	270	0.00	29.715 
21:00	34.3	30.7	34.3	84	30.0	4	9	315	0.00	29.725 
21:05	34.1	34.1	34.1	84	29.8	3	7	270	0.00	29.725 
21:10	34.0	30.4	34.0	82	29.1	4	10	292	0.00	29.725 
21:15	33.8	30.2	33.8	81	28.6	4	6	315	0.00	29.735 
21:20	33.8	30.2	33.8	81	28.6	4	10	315	0.00	29.735 
21:25	33.7	33.7	33.7	81	28.5	3	11	292	0.00	29.735 
21:30	33.7	33.7	33.7	81	28.5	2	9	270	0.00	29.739 
21:35	33.7	33.7	33.7	81	28.5	3	6	270	0.00	29.739 
21:40	33.5	28.8	33.5	80	28.0	5	15	338	0.00	29.739 
21:45	33.4	29.7	33.4	80	27.9	4	7	270	0.00	29.751 
21:50	33.4	33.4	33.4	81	28.2	3	7	270	0.00	29.751 
21:55	33.2	33.2	33.2	81	28.0	3	7	315	0.00	29.751 
22:00	33.2	29.5	33.2	81	28.0	4	12	315	0.00	29.756 
22:05	33.1	33.1	33.1	81	27.9	3	10	315	0.00	29.756 
22:10	32.9	29.1	32.9	81	27.7	4	6	270	0.00	29.756 
22:15	32.8	29.0	32.8	80	27.3	4	9	292	0.00	29.769 
22:20	32.7	28.9	32.7	80	27.2	4	9	292	0.00	29.769 
22:25	32.5	27.7	32.5	79	26.7	5	14	315	0.00	29.769 
22:30	32.4	28.5	32.4	79	26.6	4	11	292	0.00	29.785 
22:35	32.4	28.5	32.4	79	26.6	4	11	315	0.00	29.785 
22:40	32.2	32.2	32.2	79	26.4	3	9	315	0.00	29.785 
22:45	32.2	27.3	32.2	79	26.4	5	11	270	0.00	29.796 
22:50	32.1	28.2	32.1	78	26.0	4	11	338	0.00	29.796 
22:55	32.1	32.1	32.1	78	26.0	3	5	292	0.00	29.796 
23:00	31.9	27.0	31.9	77	25.5	5	13	270	0.00	29.808 
23:05	31.9	27.0	31.9	77	25.5	5	10	292	0.00	29.808 
23:10	31.9	26.1	31.9	76	25.2	6	12	270	0.00	29.808 
23:15	31.9	28.0	31.9	76	25.2	4	9	338	0.00	29.813 
23:20	31.8	27.8	31.8	76	25.1	4	11	315	0.00	29.813 
23:25	31.8	31.8	31.8	77	25.4	3	6	292	0.00	29.813 
23:30	31.8	31.8	31.8	77	25.4	2	6	338	0.00	29.820 
23:35	31.8	31.8	31.8	77	25.4	3	9	248	0.00	29.820 
23:40	31.6	27.6	31.6	81	26.5	4	9	270	0.00	29.820 
23:45	31.3	27.3	31.3	75	24.3	4	9	270	0.00	29.830 
23:50	31.2	27.2	31.2	75	24.2	4	8	248	0.00	29.830 
23:55	31.0	26.9	31.0	75	24.0	4	12	338	0.00	29.830 

CoCoRaHS
IN-AL-39
A2 Web Hosting
Creative Commons License
GoDaddy
search engine by freefind advanced

loaded 2018-11-20 06:33:00 • last modified 2010-11-18 10:43:29
Privacy PolicyDisclaimer
• wx.awcolley.com is powered by PmWiki v.2002016 •
• all content (unless otherwise noted) © 2018 A W Colley